sensor_id;sensor_type;location;lat;lon;timestamp;pressure;altitude;pressure_sealevel;temperature;humidity
4012;BME280;2020;48.682;9.024;2024-01-25T00:02:15;97602.72;;;7.37;84.70
4012;BME280;2020;48.682;9.024;2024-01-25T00:04:40;97596.59;;;7.38;85.32
4012;BME280;2020;48.682;9.024;2024-01-25T00:07:08;97598.25;;;7.39;84.84
4012;BME280;2020;48.682;9.024;2024-01-25T00:09:33;97596.59;;;7.38;85.09
4012;BME280;2020;48.682;9.024;2024-01-25T00:11:58;97589.56;;;7.40;85.05
4012;BME280;2020;48.682;9.024;2024-01-25T00:14:23;97586.25;;;7.38;85.27
4012;BME280;2020;48.682;9.024;2024-01-25T00:16:49;97589.56;;;7.40;85.75
4012;BME280;2020;48.682;9.024;2024-01-25T00:19:14;97589.78;;;7.37;85.68
4012;BME280;2020;48.682;9.024;2024-01-25T00:21:43;97579.19;;;7.40;85.85
4012;BME280;2020;48.682;9.024;2024-01-25T00:24:11;97574.00;;;7.40;86.08
4012;BME280;2020;48.682;9.024;2024-01-25T00:26:36;97572.16;;;7.42;84.91
4012;BME280;2020;48.682;9.024;2024-01-25T00:29:01;97580.94;;;7.39;85.83
4012;BME280;2020;48.682;9.024;2024-01-25T00:31:27;97582.50;;;7.42;85.51
4012;BME280;2020;48.682;9.024;2024-01-25T00:33:52;97579.78;;;7.43;84.68
4012;BME280;2020;48.682;9.024;2024-01-25T00:36:18;97582.50;;;7.42;85.93
4012;BME280;2020;48.682;9.024;2024-01-25T00:38:43;97576.38;;;7.43;85.84
4012;BME280;2020;48.682;9.024;2024-01-25T00:41:09;97580.00;;;7.40;85.72
4012;BME280;2020;48.682;9.024;2024-01-25T00:43:35;97573.81;;;7.43;86.40
4012;BME280;2020;48.682;9.024;2024-01-25T00:46:00;97575.47;;;7.44;85.32
4012;BME280;2020;48.682;9.024;2024-01-25T00:48:26;97573.81;;;7.43;86.19
4012;BME280;2020;48.682;9.024;2024-01-25T00:50:51;97566.97;;;7.42;85.77
4012;BME280;2020;48.682;9.024;2024-01-25T00:53:17;97565.09;;;7.44;85.52
4012;BME280;2020;48.682;9.024;2024-01-25T00:55:43;97577.91;;;7.45;86.14
4012;BME280;2020;48.682;9.024;2024-01-25T00:58:09;97585.59;;;7.47;85.99
4012;BME280;2020;48.682;9.024;2024-01-25T01:00:34;97589.13;;;7.46;87.13
4012;BME280;2020;48.682;9.024;2024-01-25T01:03:02;97579.41;;;7.37;91.41
4012;BME280;2020;48.682;9.024;2024-01-25T01:05:29;97575.69;;;7.28;94.67
4012;BME280;2020;48.682;9.024;2024-01-25T01:07:54;97580.47;;;7.21;95.01
4012;BME280;2020;48.682;9.024;2024-01-25T01:10:20;97582.31;;;7.19;95.84
4012;BME280;2020;48.682;9.024;2024-01-25T01:12:45;97573.84;;;7.17;95.56
4012;BME280;2020;48.682;9.024;2024-01-25T01:15:10;97573.63;;;7.20;95.31
4012;BME280;2020;48.682;9.024;2024-01-25T01:17:36;97584.81;;;7.21;94.86
4012;BME280;2020;48.682;9.024;2024-01-25T01:20:01;97580.66;;;7.18;95.09
4012;BME280;2020;48.682;9.024;2024-01-25T01:22:26;97583.25;;;7.18;94.89
4012;BME280;2020;48.682;9.024;2024-01-25T01:24:51;97586.06;;;7.15;95.42
4012;BME280;2020;48.682;9.024;2024-01-25T01:27:17;97571.97;;;7.19;93.60
4012;BME280;2020;48.682;9.024;2024-01-25T01:29:42;97571.97;;;7.19;94.18
4012;BME280;2020;48.682;9.024;2024-01-25T01:32:07;97564.91;;;7.21;93.22
4012;BME280;2020;48.682;9.024;2024-01-25T01:34:33;97568.44;;;7.20;93.88
4012;BME280;2020;48.682;9.024;2024-01-25T01:36:58;97556.22;;;7.22;92.76
4012;BME280;2020;48.682;9.024;2024-01-25T01:39:23;97562.25;;;7.23;93.14
4012;BME280;2020;48.682;9.024;2024-01-25T01:41:50;97557.88;;;7.23;92.81
4012;BME280;2020;48.682;9.024;2024-01-25T01:44:15;97552.69;;;7.23;93.38
4012;BME280;2020;48.682;9.024;2024-01-25T01:46:41;97547.72;;;7.20;92.76
4012;BME280;2020;48.682;9.024;2024-01-25T01:49:08;97549.38;;;7.21;92.64
4012;BME280;2020;48.682;9.024;2024-01-25T01:51:36;97564.91;;;7.21;92.36
4012;BME280;2020;48.682;9.024;2024-01-25T01:54:02;97569.88;;;7.24;91.74
4012;BME280;2020;48.682;9.024;2024-01-25T01:56:28;97556.22;;;7.22;92.09
4012;BME280;2020;48.682;9.024;2024-01-25T01:58:56;97556.94;;;7.24;91.70
4012;BME280;2020;48.682;9.024;2024-01-25T02:01:24;97554.34;;;7.24;91.46
4012;BME280;2020;48.682;9.024;2024-01-25T02:03:49;97548.94;;;7.27;90.93
4012;BME280;2020;48.682;9.024;2024-01-25T02:06:14;97559.31;;;7.27;92.01
4012;BME280;2020;48.682;9.024;2024-01-25T02:08:40;97558.59;;;7.25;91.39
4012;BME280;2020;48.682;9.024;2024-01-25T02:11:05;97562.84;;;7.26;92.43
4012;BME280;2020;48.682;9.024;2024-01-25T02:13:30;97564.50;;;7.27;92.23
4012;BME280;2020;48.682;9.024;2024-01-25T02:15:56;97560.06;;;7.29;91.50
4012;BME280;2020;48.682;9.024;2024-01-25T02:18:21;97562.44;;;7.32;90.90
4012;BME280;2020;48.682;9.024;2024-01-25T02:20:47;97568.56;;;7.31;90.70
4012;BME280;2020;48.682;9.024;2024-01-25T02:23:12;97562.66;;;7.29;89.84
4012;BME280;2020;48.682;9.024;2024-01-25T02:25:37;97559.31;;;7.27;90.40
4012;BME280;2020;48.682;9.024;2024-01-25T02:28:03;97551.75;;;7.24;90.28
4012;BME280;2020;48.682;9.024;2024-01-25T02:30:28;97556.22;;;7.22;89.39
4012;BME280;2020;48.682;9.024;2024-01-25T02:32:53;97551.03;;;7.22;89.33
4012;BME280;2020;48.682;9.024;2024-01-25T02:35:19;97552.69;;;7.23;88.99
4012;BME280;2020;48.682;9.024;2024-01-25T02:37:44;97554.34;;;7.24;90.18
4012;BME280;2020;48.682;9.024;2024-01-25T02:40:09;97552.09;;;7.20;90.59
4012;BME280;2020;48.682;9.024;2024-01-25T02:42:35;97548.78;;;7.17;90.13
4012;BME280;2020;48.682;9.024;2024-01-25T02:45:00;97543.59;;;7.17;90.90
4012;BME280;2020;48.682;9.024;2024-01-25T02:47:25;97541.31;;;7.13;91.73
4012;BME280;2020;48.682;9.024;2024-01-25T02:49:51;97534.50;;;7.12;91.96
4012;BME280;2020;48.682;9.024;2024-01-25T02:52:16;97532.75;;;7.12;92.21
4012;BME280;2020;48.682;9.024;2024-01-25T02:54:41;97538.03;;;7.11;92.08
4012;BME280;2020;48.682;9.024;2024-01-25T02:57:06;97541.31;;;7.13;92.69
4012;BME280;2020;48.682;9.024;2024-01-25T02:59:32;97545.06;;;7.09;93.11
4012;BME280;2020;48.682;9.024;2024-01-25T03:01:57;97544.25;;;7.08;92.89
4012;BME280;2020;48.682;9.024;2024-01-25T03:04:22;97541.53;;;7.10;93.13
4012;BME280;2020;48.682;9.024;2024-01-25T03:06:48;97554.81;;;7.05;93.89
4012;BME280;2020;48.682;9.024;2024-01-25T03:09:14;97560.81;;;7.06;94.26
4012;BME280;2020;48.682;9.024;2024-01-25T03:11:39;97557.72;;;7.00;94.72
4012;BME280;2020;48.682;9.024;2024-01-25T03:14:04;97550.66;;;7.02;94.23
4012;BME280;2020;48.682;9.024;2024-01-25T03:16:29;97552.53;;;7.00;94.44
4012;BME280;2020;48.682;9.024;2024-01-25T03:18:54;97542.19;;;7.00;94.63
4012;BME280;2020;48.682;9.024;2024-01-25T03:21:20;97559.59;;;6.98;95.58
4012;BME280;2020;48.682;9.024;2024-01-25T03:23:45;97551.09;;;6.96;96.00
4012;BME280;2020;48.682;9.024;2024-01-25T03:26:10;97557.41;;;6.92;95.54
4012;BME280;2020;48.682;9.024;2024-01-25T03:28:36;97553.19;;;6.91;96.39
4012;BME280;2020;48.682;9.024;2024-01-25T03:31:02;97557.63;;;6.89;96.41
4012;BME280;2020;48.682;9.024;2024-01-25T03:33:28;97563.75;;;6.88;96.28
4012;BME280;2020;48.682;9.024;2024-01-25T03:35:54;97563.75;;;6.88;95.53
4012;BME280;2020;48.682;9.024;2024-01-25T03:38:19;97575.97;;;6.86;95.02
4012;BME280;2020;48.682;9.024;2024-01-25T03:40:44;97580.19;;;6.87;93.26
4012;BME280;2020;48.682;9.024;2024-01-25T03:43:09;97579.59;;;6.83;93.61
4012;BME280;2020;48.682;9.024;2024-01-25T03:45:35;97587.16;;;6.86;93.18
4012;BME280;2020;48.682;9.024;2024-01-25T03:48:00;97584.66;;;6.85;92.75
4012;BME280;2020;48.682;9.024;2024-01-25T03:50:26;97583.63;;;6.87;92.29
4012;BME280;2020;48.682;9.024;2024-01-25T03:52:52;97597.38;;;6.88;92.93
4012;BME280;2020;48.682;9.024;2024-01-25T03:55:17;97595.84;;;6.85;91.96
4012;BME280;2020;48.682;9.024;2024-01-25T03:57:42;97608.88;;;6.84;91.70
4012;BME280;2020;48.682;9.024;2024-01-25T04:00:08;97612.09;;;6.87;91.42
4012;BME280;2020;48.682;9.024;2024-01-25T04:02:34;97616.44;;;6.87;91.81
4012;BME280;2020;48.682;9.024;2024-01-25T04:04:59;97617.56;;;6.83;91.01
4012;BME280;2020;48.682;9.024;2024-01-25T04:07:24;97617.56;;;6.83;91.03
4012;BME280;2020;48.682;9.024;2024-01-25T04:09:50;97625.34;;;6.83;90.51
4012;BME280;2020;48.682;9.024;2024-01-25T04:12:15;97627.94;;;6.83;90.63
4012;BME280;2020;48.682;9.024;2024-01-25T04:14:41;97624.53;;;6.82;90.45
4012;BME280;2020;48.682;9.024;2024-01-25T04:17:06;97624.53;;;6.82;89.99
4012;BME280;2020;48.682;9.024;2024-01-25T04:19:31;97621.09;;;6.82;89.02
4012;BME280;2020;48.682;9.024;2024-01-25T04:21:56;97629.91;;;6.79;90.17
4012;BME280;2020;48.682;9.024;2024-01-25T04:24:22;97636.09;;;6.77;89.69
4012;BME280;2020;48.682;9.024;2024-01-25T04:26:47;97644.69;;;6.77;89.70
4012;BME280;2020;48.682;9.024;2024-01-25T04:29:12;97641.41;;;6.75;89.81
4012;BME280;2020;48.682;9.024;2024-01-25T04:31:45;97641.19;;;6.78;89.43
4012;BME280;2020;48.682;9.024;2024-01-25T04:34:12;97645.44;;;6.79;89.04
4012;BME280;2020;48.682;9.024;2024-01-25T04:36:37;97638.69;;;6.77;88.38
4012;BME280;2020;48.682;9.024;2024-01-25T04:39:02;97637.03;;;6.76;88.17
4012;BME280;2020;48.682;9.024;2024-01-25T04:41:28;97636.31;;;6.73;88.88
4012;BME280;2020;48.682;9.024;2024-01-25T04:43:53;97647.59;;;6.72;88.89
4012;BME280;2020;48.682;9.024;2024-01-25T04:46:18;97645.19;;;6.69;87.99
4012;BME280;2020;48.682;9.024;2024-01-25T04:48:43;97644.28;;;6.70;87.85
4012;BME280;2020;48.682;9.024;2024-01-25T04:51:18;97655.66;;;6.68;87.90
4012;BME280;2020;48.682;9.024;2024-01-25T04:53:43;97649.84;;;6.64;87.49
4012;BME280;2020;48.682;9.024;2024-01-25T04:56:09;97648.41;;;6.60;87.69
4012;BME280;2020;48.682;9.024;2024-01-25T04:58:34;97661.34;;;6.60;87.34
4012;BME280;2020;48.682;9.024;2024-01-25T05:01:00;97666.50;;;6.60;87.60
4012;BME280;2020;48.682;9.024;2024-01-25T05:03:25;97661.34;;;6.60;88.06
4012;BME280;2020;48.682;9.024;2024-01-25T05:05:51;97678.50;;;6.61;88.19
4012;BME280;2020;48.682;9.024;2024-01-25T05:08:16;97675.28;;;6.57;87.09
4012;BME280;2020;48.682;9.024;2024-01-25T05:10:41;97673.75;;;6.55;87.05
4012;BME280;2020;48.682;9.024;2024-01-25T05:13:07;97679.94;;;6.52;87.35
4012;BME280;2020;48.682;9.024;2024-01-25T05:15:32;97674.66;;;6.54;88.38
4012;BME280;2020;48.682;9.024;2024-01-25T05:17:58;97655.84;;;6.52;87.06
4012;BME280;2020;48.682;9.024;2024-01-25T05:20:23;97665.34;;;6.51;86.52
4012;BME280;2020;48.682;9.024;2024-01-25T05:22:48;97657.69;;;6.50;86.74
4012;BME280;2020;48.682;9.024;2024-01-25T05:25:14;97657.69;;;6.50;87.60
4012;BME280;2020;48.682;9.024;2024-01-25T05:27:39;97673.41;;;6.47;86.83
4012;BME280;2020;48.682;9.024;2024-01-25T05:30:05;97670.31;;;6.41;88.28
4012;BME280;2020;48.682;9.024;2024-01-25T05:32:30;97670.09;;;6.44;87.59
4012;BME280;2020;48.682;9.024;2024-01-25T05:34:55;97665.53;;;6.35;88.45
4012;BME280;2020;48.682;9.024;2024-01-25T05:37:21;97670.69;;;6.35;89.09
4012;BME280;2020;48.682;9.024;2024-01-25T05:39:46;97686.22;;;6.35;88.95
4012;BME280;2020;48.682;9.024;2024-01-25T05:42:11;97680.84;;;6.38;88.35
4012;BME280;2020;48.682;9.024;2024-01-25T05:44:36;97683.72;;;6.34;88.50
4012;BME280;2020;48.682;9.024;2024-01-25T05:47:02;97692.59;;;6.29;89.39
4012;BME280;2020;48.682;9.024;2024-01-25T05:49:27;97699.72;;;6.26;89.42
4012;BME280;2020;48.682;9.024;2024-01-25T05:51:52;97707.28;;;6.29;89.57
4012;BME280;2020;48.682;9.024;2024-01-25T05:54:17;97704.19;;;6.24;90.42
4012;BME280;2020;48.682;9.024;2024-01-25T05:56:43;97701.06;;;6.19;90.18
4012;BME280;2020;48.682;9.024;2024-01-25T05:59:08;97708.06;;;6.17;91.09
4012;BME280;2020;48.682;9.024;2024-01-25T06:01:33;97703.28;;;6.10;90.96
4012;BME280;2020;48.682;9.024;2024-01-25T06:03:58;97712.91;;;6.08;91.38
4012;BME280;2020;48.682;9.024;2024-01-25T06:06:24;97708.47;;;6.10;91.79
4012;BME280;2020;48.682;9.024;2024-01-25T06:08:49;97707.00;;;6.06;91.32
4012;BME280;2020;48.682;9.024;2024-01-25T06:11:14;97707.81;;;6.07;91.58
4012;BME280;2020;48.682;9.024;2024-01-25T06:13:40;97708.47;;;6.10;91.37
4012;BME280;2020;48.682;9.024;2024-01-25T06:16:06;97707.72;;;6.08;92.15
4012;BME280;2020;48.682;9.024;2024-01-25T06:18:31;97701.84;;;6.06;92.01
4012;BME280;2020;48.682;9.024;2024-01-25T06:20:56;97701.84;;;6.06;91.74
4012;BME280;2020;48.682;9.024;2024-01-25T06:23:21;97697.00;;;6.00;91.57
4012;BME280;2020;48.682;9.024;2024-01-25T06:25:47;97695.72;;;5.93;91.86
4012;BME280;2020;48.682;9.024;2024-01-25T06:28:12;97698.28;;;5.93;92.25
4012;BME280;2020;48.682;9.024;2024-01-25T06:30:37;97684.47;;;5.79;92.24
4012;BME280;2020;48.682;9.024;2024-01-25T06:33:04;97689.84;;;5.76;92.31
4012;BME280;2020;48.682;9.024;2024-01-25T06:35:29;97691.69;;;5.74;92.26
4012;BME280;2020;48.682;9.024;2024-01-25T06:37:54;97689.28;;;5.71;93.24
4012;BME280;2020;48.682;9.024;2024-01-25T06:40:19;97691.88;;;5.71;92.83
4012;BME280;2020;48.682;9.024;2024-01-25T06:42:45;97701.84;;;5.63;93.26
4012;BME280;2020;48.682;9.024;2024-01-25T06:45:10;97693.66;;;5.56;93.20
4012;BME280;2020;48.682;9.024;2024-01-25T06:47:35;97703.06;;;5.57;93.43
4012;BME280;2020;48.682;9.024;2024-01-25T06:50:01;97702.34;;;5.55;92.98
4012;BME280;2020;48.682;9.024;2024-01-25T06:52:26;97702.97;;;5.59;92.75
4012;BME280;2020;48.682;9.024;2024-01-25T06:54:52;97709.97;;;5.56;92.85
4012;BME280;2020;48.682;9.024;2024-01-25T06:57:17;97704.81;;;5.56;92.69
4012;BME280;2020;48.682;9.024;2024-01-25T06:59:42;97703.16;;;5.55;92.95
4012;BME280;2020;48.682;9.024;2024-01-25T07:02:07;97708.50;;;5.52;92.87
4012;BME280;2020;48.682;9.024;2024-01-25T07:04:33;97719.75;;;5.51;92.46
4012;BME280;2020;48.682;9.024;2024-01-25T07:06:58;97719.03;;;5.49;93.58
4012;BME280;2020;48.682;9.024;2024-01-25T07:09:25;97714.03;;;5.46;92.88
4012;BME280;2020;48.682;9.024;2024-01-25T07:11:50;97697.56;;;5.49;92.91
4012;BME280;2020;48.682;9.024;2024-01-25T07:14:15;97705.56;;;5.44;92.68
4012;BME280;2020;48.682;9.024;2024-01-25T07:16:41;97716.25;;;5.38;93.63
4012;BME280;2020;48.682;9.024;2024-01-25T07:19:06;97703.91;;;5.43;93.00
4012;BME280;2020;48.682;9.024;2024-01-25T07:21:31;97705.75;;;5.41;93.54
4012;BME280;2020;48.682;9.024;2024-01-25T07:23:59;97702.25;;;5.42;93.35
4012;BME280;2020;48.682;9.024;2024-01-25T07:26:24;97715.69;;;5.47;92.65
4012;BME280;2020;48.682;9.024;2024-01-25T07:28:50;97723.09;;;5.39;93.40
4012;BME280;2020;48.682;9.024;2024-01-25T07:31:19;97719.75;;;5.37;93.51
4012;BME280;2020;48.682;9.024;2024-01-25T07:33:45;97730.09;;;5.37;93.21
4012;BME280;2020;48.682;9.024;2024-01-25T07:36:10;97737.09;;;5.35;93.36
4012;BME280;2020;48.682;9.024;2024-01-25T07:38:35;97726.31;;;5.43;92.93
4012;BME280;2020;48.682;9.024;2024-01-25T07:41:01;97735.25;;;5.51;92.18
4012;BME280;2020;48.682;9.024;2024-01-25T07:43:26;97732.84;;;5.48;92.50
4012;BME280;2020;48.682;9.024;2024-01-25T07:45:51;97738.75;;;5.50;92.60
4012;BME280;2020;48.682;9.024;2024-01-25T07:48:16;97745.03;;;5.46;92.66
4012;BME280;2020;48.682;9.024;2024-01-25T07:50:42;97749.66;;;5.55;91.80
4012;BME280;2020;48.682;9.024;2024-01-25T07:53:07;97752.41;;;5.67;92.42
4012;BME280;2020;48.682;9.024;2024-01-25T07:55:32;97748.34;;;5.77;91.83
4012;BME280;2020;48.682;9.024;2024-01-25T07:57:57;97756.25;;;5.89;92.52
4012;BME280;2020;48.682;9.024;2024-01-25T08:00:22;97745.03;;;6.04;91.17
4012;BME280;2020;48.682;9.024;2024-01-25T08:02:48;97738.72;;;6.23;90.90
4012;BME280;2020;48.682;9.024;2024-01-25T08:05:13;97732.75;;;6.35;89.54
4012;BME280;2020;48.682;9.024;2024-01-25T08:07:38;97731.06;;;6.62;88.41
4012;BME280;2020;48.682;9.024;2024-01-25T08:10:04;97730.63;;;6.82;86.13
4012;BME280;2020;48.682;9.024;2024-01-25T08:12:30;97727.75;;;7.00;85.35
4012;BME280;2020;48.682;9.024;2024-01-25T08:14:55;97720.50;;;7.05;85.30
4012;BME280;2020;48.682;9.024;2024-01-25T08:17:20;97723.81;;;7.20;84.13
4012;BME280;2020;48.682;9.024;2024-01-25T08:19:46;97714.53;;;7.30;83.85
4012;BME280;2020;48.682;9.024;2024-01-25T08:22:11;97716.16;;;7.44;82.29
4012;BME280;2020;48.682;9.024;2024-01-25T08:24:38;97707.66;;;7.55;81.94
4012;BME280;2020;48.682;9.024;2024-01-25T08:27:04;97704.22;;;7.68;81.46
4012;BME280;2020;48.682;9.024;2024-01-25T08:29:30;97696.22;;;7.71;81.54
4012;BME280;2020;48.682;9.024;2024-01-25T08:31:55;97696.81;;;7.87;79.97
4012;BME280;2020;48.682;9.024;2024-01-25T08:34:20;97696.59;;;7.90;79.00
4012;BME280;2020;48.682;9.024;2024-01-25T08:36:46;97707.38;;;7.84;79.57
4012;BME280;2020;48.682;9.024;2024-01-25T08:39:12;97707.19;;;7.87;80.63
4012;BME280;2020;48.682;9.024;2024-01-25T08:41:37;97716.81;;;7.98;78.16
4012;BME280;2020;48.682;9.024;2024-01-25T08:44:03;97716.03;;;8.09;77.37
4012;BME280;2020;48.682;9.024;2024-01-25T08:46:28;97719.56;;;8.32;77.29
4012;BME280;2020;48.682;9.024;2024-01-25T08:48:53;97722.94;;;8.46;76.22
4012;BME280;2020;48.682;9.024;2024-01-25T08:51:18;97733.50;;;8.56;75.46
4012;BME280;2020;48.682;9.024;2024-01-25T08:53:44;97736.81;;;8.58;74.31
4012;BME280;2020;48.682;9.024;2024-01-25T08:56:09;97738.94;;;8.88;76.03
4012;BME280;2020;48.682;9.024;2024-01-25T08:58:35;97740.72;;;8.88;74.73
4012;BME280;2020;48.682;9.024;2024-01-25T09:01:00;97750.06;;;9.02;73.41
4012;BME280;2020;48.682;9.024;2024-01-25T09:03:26;97756.16;;;9.25;73.43
4012;BME280;2020;48.682;9.024;2024-01-25T09:05:51;97760.81;;;8.97;73.60
4012;BME280;2020;48.682;9.024;2024-01-25T09:08:16;97768.16;;;9.03;73.25
4012;BME280;2020;48.682;9.024;2024-01-25T09:10:42;97746.22;;;9.19;74.50
4012;BME280;2020;48.682;9.024;2024-01-25T09:13:08;97746.00;;;9.45;73.33
4012;BME280;2020;48.682;9.024;2024-01-25T09:15:34;97743.91;;;9.61;72.25
4012;BME280;2020;48.682;9.024;2024-01-25T09:17:59;97754.19;;;9.63;70.96
4012;BME280;2020;48.682;9.024;2024-01-25T09:20:24;97752.16;;;9.66;72.01
4012;BME280;2020;48.682;9.024;2024-01-25T09:22:50;97765.75;;;9.93;72.26
4012;BME280;2020;48.682;9.024;2024-01-25T09:25:16;97774.88;;;9.99;68.72
4012;BME280;2020;48.682;9.024;2024-01-25T09:27:41;97769.66;;;9.87;70.16
4012;BME280;2020;48.682;9.024;2024-01-25T09:30:07;97772.00;;;9.90;70.00
4012;BME280;2020;48.682;9.024;2024-01-25T09:32:32;97774.16;;;9.74;69.43
4012;BME280;2020;48.682;9.024;2024-01-25T09:34:58;97772.03;;;9.68;71.00
4012;BME280;2020;48.682;9.024;2024-01-25T09:37:23;97778.84;;;9.34;70.19
4012;BME280;2020;48.682;9.024;2024-01-25T09:39:52;97781.91;;;9.28;71.18
4012;BME280;2020;48.682;9.024;2024-01-25T09:42:18;97774.63;;;9.09;73.87
4012;BME280;2020;48.682;9.024;2024-01-25T09:44:44;97779.88;;;8.85;74.65
4012;BME280;2020;48.682;9.024;2024-01-25T09:47:10;97777.03;;;8.76;73.33
4012;BME280;2020;48.682;9.024;2024-01-25T09:49:36;97785.97;;;8.72;73.02
4012;BME280;2020;48.682;9.024;2024-01-25T09:52:04;97784.47;;;8.57;76.88
4012;BME280;2020;48.682;9.024;2024-01-25T09:54:33;97790.19;;;8.62;74.02
4012;BME280;2020;48.682;9.024;2024-01-25T09:56:59;97793.91;;;8.58;73.01
4012;BME280;2020;48.682;9.024;2024-01-25T09:59:25;97791.38;;;8.69;76.36
4012;BME280;2020;48.682;9.024;2024-01-25T10:01:51;97793.41;;;8.77;77.11
4012;BME280;2020;48.682;9.024;2024-01-25T10:04:16;97794.69;;;8.71;74.96
4012;BME280;2020;48.682;9.024;2024-01-25T10:06:44;97786.69;;;8.74;76.11
4012;BME280;2020;48.682;9.024;2024-01-25T10:09:09;97791.72;;;8.89;76.85
4012;BME280;2020;48.682;9.024;2024-01-25T10:11:35;97791.31;;;8.82;73.34
4012;BME280;2020;48.682;9.024;2024-01-25T10:14:01;97792.59;;;8.76;73.86
4012;BME280;2020;48.682;9.024;2024-01-25T10:16:26;97796.13;;;8.75;79.09
4012;BME280;2020;48.682;9.024;2024-01-25T10:18:52;97797.44;;;9.05;77.73
4012;BME280;2020;48.682;9.024;2024-01-25T10:21:18;97793.44;;;9.13;75.65
4012;BME280;2020;48.682;9.024;2024-01-25T10:23:44;97795.06;;;9.02;73.08
4012;BME280;2020;48.682;9.024;2024-01-25T10:26:11;97777.66;;;9.27;74.35
4012;BME280;2020;48.682;9.024;2024-01-25T10:28:36;97778.41;;;9.63;71.83
4012;BME280;2020;48.682;9.024;2024-01-25T10:31:02;97766.00;;;9.67;72.96
4012;BME280;2020;48.682;9.024;2024-01-25T10:33:30;97772.38;;;9.97;72.92
4012;BME280;2020;48.682;9.024;2024-01-25T10:35:56;97769.50;;;10.23;71.05
4012;BME280;2020;48.682;9.024;2024-01-25T10:38:29;97781.94;;;10.42;68.78
4012;BME280;2020;48.682;9.024;2024-01-25T10:40:54;97777.31;;;10.78;67.91
4012;BME280;2020;48.682;9.024;2024-01-25T10:43:20;97775.34;;;10.71;68.51
4012;BME280;2020;48.682;9.024;2024-01-25T10:45:46;97774.81;;;10.33;68.85
4012;BME280;2020;48.682;9.024;2024-01-25T10:48:12;97778.00;;;10.36;70.53
4012;BME280;2020;48.682;9.024;2024-01-25T10:50:37;97765.09;;;10.58;71.95
4012;BME280;2020;48.682;9.024;2024-01-25T10:53:05;97765.81;;;10.48;69.45
4012;BME280;2020;48.682;9.024;2024-01-25T10:55:32;97775.56;;;10.12;69.16
4012;BME280;2020;48.682;9.024;2024-01-25T10:57:58;97770.59;;;10.09;67.89
4012;BME280;2020;48.682;9.024;2024-01-25T11:00:23;97763.88;;;9.95;68.43
4012;BME280;2020;48.682;9.024;2024-01-25T11:02:50;97760.81;;;9.67;69.27
4012;BME280;2020;48.682;9.024;2024-01-25T11:05:16;97752.28;;;9.42;70.06
4012;BME280;2020;48.682;9.024;2024-01-25T11:07:47;97755.91;;;9.28;69.86
4012;BME280;2020;48.682;9.024;2024-01-25T11:10:17;97748.91;;;9.17;69.02
4012;BME280;2020;48.682;9.024;2024-01-25T11:13:13;97749.56;;;9.44;70.66
4012;BME280;2020;48.682;9.024;2024-01-25T11:15:36;97742.34;;;9.93;69.42
4012;BME280;2020;48.682;9.024;2024-01-25T11:18:03;97736.81;;;9.98;68.87
4012;BME280;2020;48.682;9.024;2024-01-25T11:20:29;97737.50;;;9.88;67.69
4012;BME280;2020;48.682;9.024;2024-01-25T11:23:02;97735.25;;;10.06;68.16
4012;BME280;2020;48.682;9.024;2024-01-25T11:25:28;97722.69;;;10.12;68.59
4012;BME280;2020;48.682;9.024;2024-01-25T11:27:54;97720.44;;;10.18;70.17
4012;BME280;2020;48.682;9.024;2024-01-25T11:30:20;97709.75;;;10.33;67.99
4012;BME280;2020;48.682;9.024;2024-01-25T11:32:48;97704.16;;;10.49;66.53
4012;BME280;2020;48.682;9.024;2024-01-25T11:35:15;97701.44;;;10.83;67.44
4012;BME280;2020;48.682;9.024;2024-01-25T11:37:45;97698.16;;;10.91;67.74
4012;BME280;2020;48.682;9.024;2024-01-25T11:40:11;97687.19;;;10.87;64.47
4012;BME280;2020;48.682;9.024;2024-01-25T11:42:37;97696.09;;;10.63;65.33
4012;BME280;2020;48.682;9.024;2024-01-25T11:45:03;97698.66;;;10.42;65.89
4012;BME280;2020;48.682;9.024;2024-01-25T11:47:29;97694.34;;;10.52;68.44
4012;BME280;2020;48.682;9.024;2024-01-25T11:49:55;97694.94;;;10.99;67.11
4012;BME280;2020;48.682;9.024;2024-01-25T11:52:20;97692.44;;;11.39;65.50
4012;BME280;2020;48.682;9.024;2024-01-25T11:54:45;97693.88;;;11.63;64.24
4012;BME280;2020;48.682;9.024;2024-01-25T11:57:11;97693.81;;;11.44;61.92
4012;BME280;2020;48.682;9.024;2024-01-25T11:59:36;97690.81;;;10.96;64.78
4012;BME280;2020;48.682;9.024;2024-01-25T12:02:02;97687.28;;;10.43;67.37
4012;BME280;2020;48.682;9.024;2024-01-25T12:04:28;97688.69;;;10.36;66.14
4012;BME280;2020;48.682;9.024;2024-01-25T12:06:53;97690.84;;;10.31;67.52
4012;BME280;2020;48.682;9.024;2024-01-25T12:09:18;97691.91;;;10.28;67.05
4012;BME280;2020;48.682;9.024;2024-01-25T12:11:44;97678.78;;;10.41;67.30
4012;BME280;2020;48.682;9.024;2024-01-25T12:14:09;97682.88;;;10.76;66.61
4012;BME280;2020;48.682;9.024;2024-01-25T12:16:34;97674.75;;;11.22;62.78
4012;BME280;2020;48.682;9.024;2024-01-25T12:19:00;97665.53;;;10.87;63.31
4012;BME280;2020;48.682;9.024;2024-01-25T12:21:25;97675.00;;;10.66;65.11
4012;BME280;2020;48.682;9.024;2024-01-25T12:23:50;97672.44;;;10.55;67.18
4012;BME280;2020;48.682;9.024;2024-01-25T12:26:15;97665.41;;;10.67;65.26
4012;BME280;2020;48.682;9.024;2024-01-25T12:28:41;97665.16;;;10.70;65.67
4012;BME280;2020;48.682;9.024;2024-01-25T12:31:07;97654.94;;;11.09;67.26
4012;BME280;2020;48.682;9.024;2024-01-25T12:33:33;97647.59;;;11.46;63.11
4012;BME280;2020;48.682;9.024;2024-01-25T12:35:59;97647.00;;;11.83;61.18
4012;BME280;2020;48.682;9.024;2024-01-25T12:38:25;97643.38;;;11.74;60.35
4012;BME280;2020;48.682;9.024;2024-01-25T12:40:51;97641.44;;;11.56;59.39
4012;BME280;2020;48.682;9.024;2024-01-25T12:43:17;97640.34;;;11.59;64.34
4012;BME280;2020;48.682;9.024;2024-01-25T12:45:42;97639.44;;;11.39;62.15
4012;BME280;2020;48.682;9.024;2024-01-25T12:48:08;97638.53;;;11.50;61.72
4012;BME280;2020;48.682;9.024;2024-01-25T12:50:34;97626.41;;;11.90;60.34
4012;BME280;2020;48.682;9.024;2024-01-25T12:53:00;97634.69;;;12.05;60.45
4012;BME280;2020;48.682;9.024;2024-01-25T12:55:27;97632.22;;;12.13;60.70
4012;BME280;2020;48.682;9.024;2024-01-25T12:57:52;97621.25;;;12.19;58.93
4012;BME280;2020;48.682;9.024;2024-01-25T13:00:18;97624.41;;;11.52;59.82
4012;BME280;2020;48.682;9.024;2024-01-25T13:02:43;97621.25;;;11.18;62.56
4012;BME280;2020;48.682;9.024;2024-01-25T13:05:08;97608.06;;;11.09;62.22
4012;BME280;2020;48.682;9.024;2024-01-25T13:07:34;97608.47;;;11.05;62.86
4012;BME280;2020;48.682;9.024;2024-01-25T13:09:59;97603.97;;;11.17;63.99
4012;BME280;2020;48.682;9.024;2024-01-25T13:12:24;97606.06;;;11.74;62.41
4012;BME280;2020;48.682;9.024;2024-01-25T13:14:49;97596.47;;;11.84;60.31
4012;BME280;2020;48.682;9.024;2024-01-25T13:17:15;97595.91;;;11.70;61.66
4012;BME280;2020;48.682;9.024;2024-01-25T13:19:40;97597.69;;;11.60;58.96
4012;BME280;2020;48.682;9.024;2024-01-25T13:22:05;97586.81;;;11.55;59.30
4012;BME280;2020;48.682;9.024;2024-01-25T13:24:30;97590.28;;;11.65;57.80